Time;durP1;ratioP1;P1;durP2;ratioP2;P2;SDS_P1;SDS_P2;PMS_P1;PMS_P2;Temp;Humidity;BMP_temperature;BMP_pressure;BME280_temperature;BME280_humidity;BME280_pressure;Samples;Min_cycle;Max_cycle;Signal;HPM_P1;HPM_P2
2022/01/26 00:09:32;;;;;;;23.67;13.77;;;;;;;;;;10447827;28;20033;-67
2022/01/26 00:14:34;;;;;;;25.53;14.13;;;;;;;;;;10448022;28;20428;-65
2022/01/26 00:19:50;;;;;;;21.10;13.52;;;;;;;;;;10448228;28;20045;-64
2022/01/26 00:25:06;;;;;;;22.40;14.02;;;;;;;;;;10445765;28;20061;-65
2022/01/26 00:40:52;;;;;;;;;;;;;;;;;;10448301;28;20056;-66
2022/01/26 00:45:56;;;;;;;22.75;13.55;;;;;;;;;;10447502;28;20360;-67
2022/01/26 00:51:00;;;;;;;18.92;12.25;;;;;;;;;;10447369;28;20483;-66
2022/01/26 00:56:02;;;;;;;22.05;12.80;;;;;;;;;;10447785;28;20091;-66
2022/01/26 01:01:03;;;;;;;28.38;12.43;;;;;;;;;;10454897;28;20025;-68
2022/01/26 01:06:14;;;;;;;22.70;11.95;;;;;;;;;;10455303;28;20244;-67
2022/01/26 01:11:14;;;;;;;22.08;11.70;;;;;;;;;;10454824;28;20037;-65
2022/01/26 01:16:19;;;;;;;22.48;11.68;;;;;;;;;;10454689;28;20123;-65
2022/01/26 01:31:54;;;;;;;23.58;12.73;;;;;;;;;;10451264;28;20052;-66
2022/01/26 01:37:01;;;;;;;21.27;11.75;;;;;;;;;;10453819;28;20400;-65
2022/01/26 01:42:04;;;;;;;18.02;11.95;;;;;;;;;;10453481;28;20508;-66
2022/01/26 01:47:06;;;;;;;16.63;11.85;;;;;;;;;;10453382;28;20556;-65
2022/01/26 01:52:12;;;;;;;17.52;11.80;;;;;;;;;;10452784;28;20495;-66
2022/01/26 01:57:20;;;;;;;15.23;11.52;;;;;;;;;;10453264;28;20100;-66
2022/01/26 02:02:20;;;;;;;16.65;12.15;;;;;;;;;;10453116;28;20041;-66
2022/01/26 02:07:21;;;;;;;17.80;11.48;;;;;;;;;;10452946;28;20029;-66
2022/01/26 02:12:24;;;;;;;19.42;10.68;;;;;;;;;;10452144;28;20029;-66
2022/01/26 02:17:51;;;;;;;16.15;11.55;;;;;;;;;;10452287;28;20086;-66
2022/01/26 02:49:44;;;;;;;17.25;12.05;;;;;;;;;;10450998;28;20057;-66
2022/01/26 02:54:56;;;;;;;18.60;11.80;;;;;;;;;;10450487;28;20087;-65
2022/01/26 03:05:00;;;;;;;17.88;11.85;;;;;;;;;;10450134;28;20018;-66
2022/01/26 03:10:09;;;;;;;15.85;11.20;;;;;;;;;;10450009;28;20040;-65
2022/01/26 03:15:18;;;;;;;16.95;10.98;;;;;;;;;;10450553;28;20032;-66
2022/01/26 03:20:19;;;;;;;17.25;11.57;;;;;;;;;;10449915;28;20057;-67
2022/01/26 03:35:49;;;;;;;15.75;11.23;;;;;;;;;;10443252;28;20408;-65
2022/01/26 03:41:00;;;;;;;17.98;12.02;;;;;;;;;;10449309;28;20393;-66
2022/01/26 03:46:00;;;;;;;18.85;11.80;;;;;;;;;;10450109;28;20060;-65
2022/01/26 03:51:01;;;;;;;16.20;11.70;;;;;;;;;;10448639;28;20136;-65
2022/01/26 03:56:01;;;;;;;14.23;10.90;;;;;;;;;;10448822;28;20431;-66
2022/01/26 04:01:02;;;;;;;17.73;12.27;;;;;;;;;;10449152;28;20029;-66
2022/01/26 04:06:03;;;;;;;17.15;11.48;;;;;;;;;;10449093;28;20477;-66
2022/01/26 04:16:07;;;;;;;20.30;11.77;;;;;;;;;;10449109;28;20426;-64
2022/01/26 04:26:14;;;;;;;15.85;12.15;;;;;;;;;;10448510;28;20017;-64
2022/01/26 04:31:16;;;;;;;16.63;11.80;;;;;;;;;;10448771;28;20369;-65
2022/01/26 04:36:24;;;;;;;18.77;12.45;;;;;;;;;;10453012;28;20032;-64
2022/01/26 04:46:40;;;;;;;19.58;12.02;;;;;;;;;;10453274;28;20064;-65
2022/01/26 04:51:41;;;;;;;18.40;12.47;;;;;;;;;;10455480;28;20110;-65
2022/01/26 04:56:42;;;;;;;16.65;11.77;;;;;;;;;;10455392;28;20810;-65
2022/01/26 05:01:42;;;;;;;19.35;12.50;;;;;;;;;;10456334;28;20028;-65
2022/01/26 05:06:43;;;;;;;18.23;12.00;;;;;;;;;;10456660;28;20120;-65
2022/01/26 05:11:45;;;;;;;16.27;11.37;;;;;;;;;;10454757;28;20989;-65
2022/01/26 05:16:46;;;;;;;18.02;11.77;;;;;;;;;;10454640;28;20037;-66
2022/01/26 05:21:46;;;;;;;15.05;11.07;;;;;;;;;;10454306;28;20389;-66
2022/01/26 05:26:47;;;;;;;14.82;11.57;;;;;;;;;;10454714;28;20036;-65
2022/01/26 05:31:47;;;;;;;17.57;12.00;;;;;;;;;;10453950;28;20182;-64
2022/01/26 05:36:47;;;;;;;17.67;12.33;;;;;;;;;;10453820;28;20422;-64
2022/01/26 05:41:48;;;;;;;18.20;11.87;;;;;;;;;;10453663;28;20115;-65
2022/01/26 05:46:50;;;;;;;15.70;11.50;;;;;;;;;;10450296;28;20438;-64
2022/01/26 05:51:50;;;;;;;17.52;11.98;;;;;;;;;;10449599;28;20475;-66
2022/01/26 05:56:51;;;;;;;16.85;11.02;;;;;;;;;;10453517;28;20036;-67
2022/01/26 06:01:51;;;;;;;19.63;11.63;;;;;;;;;;10453379;28;20025;-66
2022/01/26 06:06:52;;;;;;;15.93;11.43;;;;;;;;;;10452640;28;20793;-65
2022/01/26 06:11:52;;;;;;;18.97;13.13;;;;;;;;;;10452148;28;20363;-65
2022/01/26 06:16:52;;;;;;;19.10;11.50;;;;;;;;;;10452052;28;20980;-67
2022/01/26 06:21:53;;;;;;;16.07;11.60;;;;;;;;;;10452405;28;20439;-67
2022/01/26 06:26:53;;;;;;;16.40;11.80;;;;;;;;;;10451942;28;20025;-67
2022/01/26 06:31:53;;;;;;;15.80;11.48;;;;;;;;;;10452067;28;20040;-67
2022/01/26 06:36:54;;;;;;;14.70;10.50;;;;;;;;;;10450986;28;20032;-66
2022/01/26 06:41:55;;;;;;;17.30;11.27;;;;;;;;;;10451831;28;20474;-66
2022/01/26 06:51:57;;;;;;;14.87;10.43;;;;;;;;;;10447994;28;20186;-66
2022/01/26 06:56:57;;;;;;;17.08;10.30;;;;;;;;;;10451099;28;20516;-67
2022/01/26 07:01:57;;;;;;;14.00;10.30;;;;;;;;;;10447748;28;20544;-66
2022/01/26 07:06:58;;;;;;;12.70;10.02;;;;;;;;;;10449820;28;20508;-66
2022/01/26 07:11:58;;;;;;;13.80;10.10;;;;;;;;;;10450049;28;20032;-66
2022/01/26 07:22:17;;;;;;;;;;;;;;;;;;10450622;28;20029;-65
2022/01/26 07:27:18;;;;;;;14.30;10.10;;;;;;;;;;10449430;28;20303;-65
2022/01/26 07:32:18;;;;;;;20.73;10.05;;;;;;;;;;10449338;28;20045;-66
2022/01/26 07:37:21;;;;;;;19.90;9.25;;;;;;;;;;10449433;28;20064;-66
2022/01/26 07:42:21;;;;;;;21.48;9.05;;;;;;;;;;10449106;28;20029;-67
2022/01/26 07:47:23;;;;;;;17.57;9.03;;;;;;;;;;10449030;28;20028;-67
2022/01/26 07:52:25;;;;;;;14.68;9.77;;;;;;;;;;10449326;28;20506;-67
2022/01/26 07:57:26;;;;;;;14.55;9.20;;;;;;;;;;10449740;28;20083;-67
2022/01/26 08:02:26;;;;;;;18.13;8.35;;;;;;;;;;10446939;28;20104;-67
2022/01/26 08:07:27;;;;;;;16.25;8.30;;;;;;;;;;10453501;28;20552;-67
2022/01/26 08:12:28;;;;;;;20.23;9.45;;;;;;;;;;10454930;28;20124;-66
2022/01/26 08:17:29;;;;;;;19.95;8.50;;;;;;;;;;10458209;28;20032;-68
2022/01/26 08:22:30;;;;;;;17.42;8.70;;;;;;;;;;10457194;28;20025;-67
2022/01/26 08:27:38;;;;;;;13.38;8.65;;;;;;;;;;10456782;28;20504;-67
2022/01/26 08:32:39;;;;;;;12.73;8.27;;;;;;;;;;10457149;28;20115;-67
2022/01/26 08:37:39;;;;;;;11.82;8.27;;;;;;;;;;10457078;28;20035;-67
2022/01/26 08:42:41;;;;;;;12.15;8.50;;;;;;;;;;10456924;28;20082;-65
2022/01/26 08:47:42;;;;;;;12.27;8.05;;;;;;;;;;10456371;28;20112;-65
2022/01/26 08:52:42;;;;;;;12.95;8.70;;;;;;;;;;10456100;28;20113;-65
2022/01/26 08:57:43;;;;;;;18.63;10.20;;;;;;;;;;10456057;28;20025;-67
2022/01/26 09:02:44;;;;;;;16.10;10.03;;;;;;;;;;10456086;28;20025;-66
2022/01/26 09:07:46;;;;;;;16.67;10.65;;;;;;;;;;10455471;28;20431;-68
2022/01/26 09:12:48;;;;;;;15.27;9.88;;;;;;;;;;10452292;28;20434;-67
2022/01/26 09:17:49;;;;;;;17.33;10.02;;;;;;;;;;10454800;28;20040;-68
2022/01/26 09:22:49;;;;;;;14.93;9.70;;;;;;;;;;10452058;28;20358;-64
2022/01/26 09:27:49;;;;;;;18.92;9.40;;;;;;;;;;10455290;28;20584;-66
2022/01/26 09:32:50;;;;;;;13.73;9.33;;;;;;;;;;10454840;28;20032;-64
2022/01/26 09:37:50;;;;;;;12.07;9.17;;;;;;;;;;10453884;28;20465;-66
2022/01/26 09:42:51;;;;;;;12.93;9.33;;;;;;;;;;10453498;28;20434;-64
2022/01/26 09:47:52;;;;;;;15.82;8.93;;;;;;;;;;10455018;28;20049;-68
2022/01/26 09:52:55;;;;;;;13.77;9.17;;;;;;;;;;10453481;28;20120;-66
2022/01/26 09:57:58;;;;;;;16.33;9.85;;;;;;;;;;10454828;28;20755;-66
2022/01/26 10:03:01;;;;;;;13.60;9.23;;;;;;;;;;10454590;28;20025;-68
2022/01/26 10:08:11;;;;;;;12.68;8.52;;;;;;;;;;10453762;28;20021;-68
2022/01/26 10:18:31;;;;;;;;;;;;;;;;;;10454155;28;20029;-68
2022/01/26 10:23:41;;;;;;;12.85;8.65;;;;;;;;;;10448477;28;19920;-65
2022/01/26 10:28:56;;;;;;;15.73;9.00;;;;;;;;;;10449572;28;20136;-67
2022/01/26 10:34:11;;;;;;;14.27;9.27;;;;;;;;;;10452883;28;20107;-66
2022/01/26 10:39:13;;;;;;;16.15;8.80;;;;;;;;;;10452067;28;20017;-69
2022/01/26 10:44:16;;;;;;;16.33;8.68;;;;;;;;;;10452516;28;20025;-66
2022/01/26 10:49:30;;;;;;;13.30;9.57;;;;;;;;;;10452540;28;20061;-62
2022/01/26 10:54:37;;;;;;;14.93;8.95;;;;;;;;;;10451614;28;20036;-66
2022/01/26 10:59:40;;;;;;;40.30;23.00;;;;;;;;;;10451755;28;20045;-67
2022/01/26 11:04:42;;;;;;;55.58;30.58;;;;;;;;;;10451406;28;20405;-68
2022/01/26 11:09:48;;;;;;;51.58;30.50;;;;;;;;;;10450912;28;20040;-67
2022/01/26 11:14:51;;;;;;;53.03;31.17;;;;;;;;;;10450930;28;20021;-67
2022/01/26 11:19:51;;;;;;;52.05;33.78;;;;;;;;;;10450388;28;20025;-68
2022/01/26 11:24:52;;;;;;;69.10;42.58;;;;;;;;;;10447777;28;20488;-70
2022/01/26 11:29:55;;;;;;;94.95;56.05;;;;;;;;;;10450796;28;20025;-67
2022/01/26 11:34:56;;;;;;;73.28;44.67;;;;;;;;;;10447232;28;20491;-67
2022/01/26 11:45:33;;;;;;;82.65;47.65;;;;;;;;;;10450543;28;20115;-70
2022/01/26 11:50:35;;;;;;;85.47;48.20;;;;;;;;;;10449290;28;20267;-67
2022/01/26 11:55:48;;;;;;;78.38;46.92;;;;;;;;;;10449093;28;20045;-67
2022/01/26 12:01:10;;;;;;;68.13;41.75;;;;;;;;;;10449898;28;20457;-67
2022/01/26 12:06:19;;;;;;;64.82;41.03;;;;;;;;;;10449924;28;20040;-65
2022/01/26 12:11:20;;;;;;;71.93;43.25;;;;;;;;;;10449734;28;20041;-68
2022/01/26 12:16:24;;;;;;;70.47;40.17;;;;;;;;;;10449969;28;20094;-66
2022/01/26 12:42:40;;;;;;;48.80;29.92;;;;;;;;;;10444545;28;20459;-65
2022/01/26 12:47:41;;;;;;;44.40;28.85;;;;;;;;;;10449547;28;20032;-65
2022/01/26 12:52:56;;;;;;;44.70;27.90;;;;;;;;;;10447808;28;20041;-64
2022/01/26 12:57:57;;;;;;;42.83;25.92;;;;;;;;;;10455323;28;20048;-64
2022/01/26 13:02:57;;;;;;;42.63;26.17;;;;;;;;;;10455240;28;20441;-64
2022/01/26 13:08:05;;;;;;;45.50;26.53;;;;;;;;;;10455016;28;20029;-64
2022/01/26 13:13:10;;;;;;;39.67;25.17;;;;;;;;;;10456256;28;20477;-65
2022/01/26 13:18:27;;;;;;;37.33;24.35;;;;;;;;;;10456414;28;20025;-67
2022/01/26 13:23:45;;;;;;;35.25;23.30;;;;;;;;;;10454841;28;20033;-67
2022/01/26 13:29:13;;;;;;;36.38;23.77;;;;;;;;;;10455266;28;20029;-64
2022/01/26 13:50:19;;;;;;;34.25;21.52;;;;;;;;;;10454724;28;20283;-65
2022/01/26 14:00:23;;;;;;;30.35;21.15;;;;;;;;;;10454560;28;20171;-65
2022/01/26 14:05:23;;;;;;;39.35;19.23;;;;;;;;;;10454065;28;20059;-64
2022/01/26 14:10:24;;;;;;;35.73;21.93;;;;;;;;;;10453305;28;20032;-63
2022/01/26 14:15:36;;;;;;;32.90;20.35;;;;;;;;;;10453860;28;20840;-63
2022/01/26 14:25:46;;;;;;;34.80;20.85;;;;;;;;;;10451976;28;20037;-64
2022/01/26 14:31:08;;;;;;;27.33;18.98;;;;;;;;;;10452980;28;20068;-64
2022/01/26 15:34:35;;;;;;;34.15;20.27;;;;;;;;;;10450060;28;19913;-68
2022/01/26 16:06:10;;;;;;;;;;;;;;;;;;10449669;28;20025;-66
2022/01/26 16:16:54;;;;;;;27.17;17.58;;;;;;;;;;10449756;28;20486;-65
2022/01/26 16:37:47;;;;;;;21.88;15.18;;;;;;;;;;10457005;28;20025;-65
2022/01/26 18:22:20;;;;;;;19.27;12.27;;;;;;;;;;10453079;28;20029;-75
2022/01/26 18:49:30;;;;;;;;;;;;;;;;;;10451236;28;20056;-69
2022/01/26 18:54:32;;;;;;;19.60;13.43;;;;;;;;;;10449281;28;20028;-69
2022/01/26 18:59:33;;;;;;;16.88;12.52;;;;;;;;;;10431063;28;20510;-69
2022/01/26 19:04:40;;;;;;;21.92;14.48;;;;;;;;;;10446778;28;20057;-69
2022/01/26 19:09:44;;;;;;;17.65;13.90;;;;;;;;;;10447728;28;20170;-69
2022/01/26 19:14:51;;;;;;;20.35;14.57;;;;;;;;;;10451178;28;20040;-69
2022/01/26 19:46:04;;;;;;;26.98;15.35;;;;;;;;;;10449354;28;20319;-68
2022/01/26 19:51:05;;;;;;;26.25;15.65;;;;;;;;;;10449658;28;20512;-69
2022/01/26 19:56:06;;;;;;;22.55;15.88;;;;;;;;;;10449658;28;20025;-66
2022/01/26 20:01:06;;;;;;;23.30;15.02;;;;;;;;;;10449432;28;20037;-67
2022/01/26 20:06:09;;;;;;;21.20;15.47;;;;;;;;;;10449539;28;20064;-66
2022/01/26 20:11:14;;;;;;;21.50;14.65;;;;;;;;;;10446655;28;20517;-69
2022/01/26 20:16:16;;;;;;;21.02;14.57;;;;;;;;;;10445559;28;20091;-65
2022/01/26 20:21:16;;;;;;;22.73;14.80;;;;;;;;;;10449821;28;20198;-66
2022/01/26 20:26:17;;;;;;;22.23;15.03;;;;;;;;;;10449041;28;20029;-66
2022/01/26 20:31:22;;;;;;;22.35;15.52;;;;;;;;;;10449250;28;20497;-66
2022/01/26 20:36:28;;;;;;;20.45;14.32;;;;;;;;;;10450056;28;20033;-66
2022/01/26 20:41:28;;;;;;;24.02;15.13;;;;;;;;;;10449227;28;20511;-66
2022/01/26 20:46:29;;;;;;;35.08;16.15;;;;;;;;;;10448591;28;20094;-65
2022/01/26 20:51:29;;;;;;;22.55;15.23;;;;;;;;;;10449165;28;20071;-68
2022/01/26 20:56:30;;;;;;;27.60;15.63;;;;;;;;;;10448309;28;20438;-65
2022/01/26 21:01:30;;;;;;;28.67;15.98;;;;;;;;;;10448967;28;20044;-66
2022/01/26 21:06:31;;;;;;;28.88;15.73;;;;;;;;;;10448840;28;20563;-66
2022/01/26 21:11:31;;;;;;;30.60;15.43;;;;;;;;;;10449187;28;20107;-65
2022/01/26 21:16:32;;;;;;;24.23;14.00;;;;;;;;;;10450377;28;21002;-65
2022/01/26 21:21:33;;;;;;;24.10;15.00;;;;;;;;;;10452458;28;20442;-65
2022/01/26 21:26:34;;;;;;;24.98;15.70;;;;;;;;;;10455299;28;20028;-68
2022/01/26 21:31:34;;;;;;;24.15;15.18;;;;;;;;;;10454861;28;20033;-70
2022/01/26 21:36:35;;;;;;;23.83;15.00;;;;;;;;;;10455046;28;20098;-69
2022/01/26 21:41:36;;;;;;;22.10;14.73;;;;;;;;;;10454583;28;20442;-69
2022/01/26 21:46:38;;;;;;;20.38;13.95;;;;;;;;;;10455232;28;20024;-71
2022/01/26 21:51:39;;;;;;;24.80;14.10;;;;;;;;;;10454329;28;20045;-70
2022/01/26 21:56:41;;;;;;;20.38;13.93;;;;;;;;;;10454736;28;20503;-66
2022/01/26 22:01:42;;;;;;;22.83;13.40;;;;;;;;;;10453905;28;20028;-67
2022/01/26 22:06:43;;;;;;;18.55;12.45;;;;;;;;;;10453797;28;20033;-66
2022/01/26 22:11:43;;;;;;;19.73;13.02;;;;;;;;;;10453717;28;20029;-67
2022/01/26 22:16:43;;;;;;;21.30;12.82;;;;;;;;;;10454392;28;20453;-66
2022/01/26 22:21:44;;;;;;;18.90;13.17;;;;;;;;;;10447954;28;20457;-66
2022/01/26 22:26:44;;;;;;;19.05;12.48;;;;;;;;;;10451696;28;20752;-72
2022/01/26 22:31:45;;;;;;;18.30;11.77;;;;;;;;;;10448924;28;20021;-69
2022/01/26 22:36:45;;;;;;;16.87;11.60;;;;;;;;;;10453200;28;20521;-66
2022/01/26 22:41:46;;;;;;;17.35;11.32;;;;;;;;;;10451648;28;20025;-65
2022/01/26 22:46:46;;;;;;;16.63;11.02;;;;;;;;;;10452807;28;20063;-66
2022/01/26 22:51:47;;;;;;;19.20;11.97;;;;;;;;;;10451290;28;20055;-69
2022/01/26 22:56:47;;;;;;;17.10;11.73;;;;;;;;;;10451560;28;20517;-67
2022/01/26 23:07:03;;;;;;;17.25;11.10;;;;;;;;;;10450877;28;20025;-62
2022/01/26 23:12:04;;;;;;;19.25;11.85;;;;;;;;;;10450638;28;20477;-67
2022/01/26 23:17:05;;;;;;;24.15;11.65;;;;;;;;;;10449893;28;20396;-68
2022/01/26 23:22:05;;;;;;;16.92;10.80;;;;;;;;;;10451018;28;20488;-68
2022/01/26 23:27:15;;;;;;;17.73;11.10;;;;;;;;;;10447485;28;20021;-67
2022/01/26 23:33:11;;;;;;;19.25;11.50;;;;;;;;;;10443814;28;20451;-67
